Observations for Trim Patrick St
| Time | AQI | Temp °C | Hum % | Pres Pa | CO μg/m³ | H₂S μg/m³ | NO μg/m³ | NO₂ μg/m³ | O₃ μg/m³ | SO₂ μg/m³ | PM1 μg/m³ | PM2.5 μg/m³ | PM10 μg/m³ |
|---|---|---|---|---|---|---|---|---|---|---|---|---|---|
| Saturday 8 August 2026 | |||||||||||||
| 22:03 | 3 | 21 | 61 | 75,098 | 0 | 16.15 | 1.19 | 34.49 | 38.13 | 7.52 | 3.71 | 7.92 | 8.71 |
| 22:02 | 3 | 21.1 | 62 | 75,082 | 0 | 17.31 | 1.18 | 40.65 | 35.09 | 7.64 | 2.86 | 7.88 | 8.67 |
| 22:01 | 3 | 21.1 | 61 | 75,057 | 0 | 16.76 | 1.19 | 43.92 | 32.53 | 7.04 | 3.71 | 7.93 | 8.73 |
| 22:00 | 3 | 21.1 | 61 | 75,027 | 0 | 19 | 1.2 | 33.98 | 37.8 | 8.03 | 3.71 | 7.22 | 7.94 |
| 21:59 | 3 | 21.1 | 60 | 74,998 | 0 | 20.32 | 1.21 | 53.33 | 37.35 | 7.53 | 4.57 | 8.72 | 9.59 |
| 21:58 | 3 | 21.1 | 56 | 74,947 | 0 | 18.68 | 1.22 | 53.92 | 22.98 | 6.92 | 2.86 | 7.52 | 8.27 |
| 21:57 | 3 | 21.2 | 60 | 74,897 | 0 | 16.73 | 1.21 | 37.44 | 34.46 | 7.5 | 4.57 | 7.98 | 8.78 |
| 21:56 | 3 | 21.2 | 60 | 74,895 | 0 | 19.34 | 1.21 | 46.62 | 31.94 | 7.56 | 2.86 | 7.24 | 7.96 |
| 21:55 | 3 | 21.2 | 61 | 74,862 | 0 | 19.9 | 1.18 | 51.42 | 29.91 | 7.96 | 3.71 | 7.93 | 8.72 |
| 21:54 | 3 | 21.2 | 61 | 74,839 | 0 | 17.65 | 1.19 | 41.82 | 34.7 | 7.73 | 2.86 | 7.22 | 7.94 |
| 21:53 | 3 | 21.3 | 61 | 74,817 | 0 | 20.53 | 1.18 | 54.66 | 28.28 | 7.66 | 3.71 | 7.21 | 7.93 |
| 21:51 | 3 | 21.3 | 60 | 74,762 | 0 | 21.53 | 1.18 | 54.76 | 34.4 | 7.89 | 2.86 | 7.97 | 8.77 |
| 21:49 | 3 | 21.3 | 61 | 74,689 | 0 | 20.98 | 1.18 | 43.25 | 35.44 | 8.18 | 2.86 | 7.21 | 7.93 |
| 21:48 | 3 | 21.4 | 60 | 74,658 | 0 | 23.35 | 1.18 | 62.17 | 36.41 | 8.42 | 3.71 | 7.25 | 7.98 |
| 21:46 | 3 | 21.4 | 59 | 74,587 | 0 | 20.24 | 1.19 | 50.25 | 30.41 | 8.32 | 4.57 | 8.79 | 9.67 |
| 21:45 | 3 | 21.5 | 58 | 74,554 | 0 | 19.9 | 1.21 | 34.81 | 39.3 | 8.65 | 2.86 | 7.42 | 8.16 |
| 21:44 | 3 | 21.5 | 59 | 74,524 | 0 | 20.21 | 1.18 | 52.28 | 28.03 | 8.02 | 2.86 | 7.31 | 8.04 |
| 21:41 | 3 | 21.6 | 60 | 74,420 | 0 | 22.3 | 1.17 | 40.84 | 36.15 | 8.61 | 4.57 | 8.76 | 9.63 |
| 21:40 | 3 | 21.6 | 56 | 74,357 | 0 | 23.75 | 1.22 | 60.16 | 31.65 | 8.35 | 3.71 | 7.56 | 8.32 |
| 21:39 | 3 | 21.6 | 58 | 74,271 | 0 | 24.09 | 1.2 | 53.02 | 29.33 | 8.82 | 3.71 | 8.11 | 8.92 |